Time;durP1;ratioP1;P1;durP2;ratioP2;P2;SDS_P1;SDS_P2;PMS_P1;PMS_P2;Temp;Humidity;BMP_temperature;BMP_pressure;BME280_temperature;BME280_humidity;BME280_pressure;Samples;Min_cycle;Max_cycle;Signal;HPM_P1;HPM_P2
2021/03/12 00:01:04;;;;;;;55.08;9.75;;;9.50;81.30;;;;;;4999079;28;20140;-80
2021/03/12 00:03:33;;;;;;;41.05;7.57;;;9.50;82.30;;;;;;4993636;28;20512;-79
2021/03/12 00:06:08;;;;;;;35.38;6.47;;;9.60;81.60;;;;;;4992845;28;20048;-79
2021/03/12 00:08:40;;;;;;;42.25;6.25;;;9.50;81.70;;;;;;4978027;28;20051;-79
2021/03/12 00:11:06;;;;;;;42.42;5.47;;;9.50;82.50;;;;;;4977894;28;20065;-79
2021/03/12 00:13:33;;;;;;;46.20;5.13;;;9.50;82.50;;;;;;4975906;28;20125;-80
2021/03/12 00:15:59;;;;;;;49.15;6.53;;;9.50;82.30;;;;;;4978231;28;20045;-80
2021/03/12 00:18:37;;;;;;;49.40;6.72;;;9.50;82.90;;;;;;4977713;28;20035;-79
2021/03/12 00:21:03;;;;;;;51.72;6.97;;;9.50;83.70;;;;;;4977290;28;20046;-79
2021/03/12 00:23:29;;;;;;;37.28;4.72;;;9.50;84.10;;;;;;4977849;28;20081;-79
2021/03/12 00:25:56;;;;;;;36.40;5.47;;;9.50;84.20;;;;;;4977745;28;20070;-80
2021/03/12 00:28:21;;;;;;;33.67;4.55;;;9.50;83.40;;;;;;4977692;28;20038;-80
2021/03/12 00:30:47;;;;;;;41.03;6.15;;;9.50;82.70;;;;;;4977625;28;20088;-80
2021/03/12 00:33:15;;;;;;;43.85;6.38;;;9.50;82.20;;;;;;4976968;28;20092;-80
2021/03/12 00:35:43;;;;;;;30.00;4.93;;;9.50;82.00;;;;;;4977542;28;20042;-80
2021/03/12 00:38:09;;;;;;;30.25;4.45;;;9.50;81.20;;;;;;4978337;28;20046;-81
2021/03/12 00:40:42;;;;;;;35.75;5.55;;;9.40;80.70;;;;;;4977338;28;20038;-81
2021/03/12 00:43:08;;;;;;;38.17;4.72;;;9.50;79.90;;;;;;4977502;28;20042;-81
2021/03/12 00:45:36;;;;;;;29.95;5.15;;;9.50;79.70;;;;;;4983210;28;20038;-80
2021/03/12 00:48:02;;;;;;;24.95;4.40;;;9.50;79.90;;;;;;4984465;28;20042;-81
2021/03/12 00:50:34;;;;;;;40.42;6.25;;;9.50;80.50;;;;;;4993650;28;20042;-81
2021/03/12 00:53:00;;;;;;;40.47;4.60;;;9.50;81.60;;;;;;4996757;28;20043;-81
2021/03/12 00:55:26;;;;;;;49.03;5.55;;;9.50;82.30;;;;;;4991478;28;20045;-80
2021/03/12 00:57:52;;;;;;;47.38;5.90;;;9.40;83.20;;;;;;4981758;28;20094;-80
2021/03/12 01:00:23;;;;;;;33.60;4.97;;;9.40;83.80;;;;;;4977086;28;20484;-80
2021/03/12 01:02:49;;;;;;;48.40;6.43;;;9.40;83.70;;;;;;4976220;28;20041;-80
2021/03/12 01:05:15;;;;;;;42.20;5.85;;;9.40;83.80;;;;;;4976592;28;20051;-80
2021/03/12 01:07:41;;;;;;;42.60;7.38;;;9.40;83.50;;;;;;4976789;28;20034;-79
2021/03/12 01:10:07;;;;;;;31.08;4.47;;;9.40;82.90;;;;;;4975052;28;20086;-79
2021/03/12 01:12:34;;;;;;;32.60;5.68;;;9.40;82.60;;;;;;4976368;28;20113;-79
2021/03/12 01:15:02;;;;;;;37.65;4.82;;;9.50;82.40;;;;;;4991541;28;20114;-79
2021/03/12 01:17:28;;;;;;;45.42;6.25;;;9.50;82.10;;;;;;4991492;28;20388;-80
2021/03/12 01:19:53;;;;;;;42.22;6.15;;;9.50;82.40;;;;;;4976264;28;20038;-79
2021/03/12 01:22:19;;;;;;;41.97;5.32;;;9.40;82.30;;;;;;4976217;28;20055;-80
2021/03/12 01:24:45;;;;;;;37.25;4.70;;;9.50;82.40;;;;;;4991213;28;20042;-79
2021/03/12 01:27:11;;;;;;;37.67;6.13;;;9.40;82.80;;;;;;4976452;28;20046;-79
2021/03/12 01:29:37;;;;;;;51.60;7.03;;;9.40;83.30;;;;;;4976321;28;20049;-80
2021/03/12 01:32:02;;;;;;;40.28;6.03;;;9.50;83.70;;;;;;4976607;28;20094;-80
2021/03/12 01:34:28;;;;;;;40.67;5.82;;;9.50;83.40;;;;;;5000248;28;20038;-80
2021/03/12 01:36:54;;;;;;;45.72;5.43;;;9.40;84.10;;;;;;5014197;28;20034;-80
2021/03/12 01:39:21;;;;;;;51.05;6.50;;;9.40;83.30;;;;;;5015340;28;20046;-79
2021/03/12 01:41:47;;;;;;;44.05;7.10;;;9.40;83.20;;;;;;4998609;28;20045;-79
2021/03/12 01:44:13;;;;;;;36.78;4.82;;;9.40;82.90;;;;;;4997422;28;20090;-79
2021/03/12 01:46:39;;;;;;;47.08;5.70;;;9.40;83.00;;;;;;5012001;28;20045;-79
2021/03/12 01:49:05;;;;;;;42.00;5.95;;;9.40;83.00;;;;;;4997619;28;20049;-79
2021/03/12 01:51:32;;;;;;;42.72;5.65;;;9.40;83.10;;;;;;4999365;28;20053;-79
2021/03/12 01:53:59;;;;;;;43.22;5.50;;;9.40;83.50;;;;;;4998997;28;20094;-79
2021/03/12 01:56:25;;;;;;;48.00;6.03;;;9.40;83.50;;;;;;4999804;28;20087;-78
2021/03/12 01:58:51;;;;;;;45.72;7.22;;;9.40;84.00;;;;;;4996525;28;20051;-80
2021/03/12 02:01:17;;;;;;;34.38;5.28;;;9.50;84.40;;;;;;4996431;28;20073;-79
2021/03/12 02:03:43;;;;;;;30.58;4.28;;;9.50;82.40;;;;;;4993954;28;20027;-79
2021/03/12 02:06:09;;;;;;;26.27;4.28;;;9.50;80.80;;;;;;4996161;28;20039;-79
2021/03/12 02:08:35;;;;;;;22.80;4.40;;;9.50;80.50;;;;;;4997431;28;20085;-80
2021/03/12 02:11:01;;;;;;;21.73;3.33;;;9.50;79.90;;;;;;4998372;28;20039;-80
2021/03/12 02:13:52;;;;;;;25.08;3.38;;;9.50;79.60;;;;;;4996447;28;20136;-80
2021/03/12 02:16:27;;;;;;;22.40;3.25;;;9.60;78.10;;;;;;4996506;28;20043;-80
2021/03/12 02:19:30;;;;;;;21.77;2.80;;;9.70;77.90;;;;;;4996478;28;20035;-80
2021/03/12 02:22:00;;;;;;;14.88;2.05;;;9.80;75.20;;;;;;4997534;28;20046;-79
2021/03/12 02:24:34;;;;;;;17.95;3.28;;;9.90;74.90;;;;;;5012775;28;20069;-80
2021/03/12 02:27:11;;;;;;;20.25;2.72;;;9.90;74.40;;;;;;4996768;28;20042;-79
2021/03/12 02:29:43;;;;;;;17.65;2.78;;;9.90;74.00;;;;;;4995986;28;20054;-79
2021/03/12 02:32:11;;;;;;;20.40;3.10;;;9.90;73.10;;;;;;4997543;28;20097;-79
2021/03/12 02:34:39;;;;;;;20.02;3.10;;;10.00;71.40;;;;;;4995396;28;20046;-79
2021/03/12 02:37:07;;;;;;;16.77;3.45;;;10.00;70.10;;;;;;5000591;28;20066;-79
2021/03/12 02:39:38;;;;;;;16.23;2.50;;;10.00;70.00;;;;;;5000408;28;20046;-79
2021/03/12 02:42:05;;;;;;;15.15;2.67;;;10.10;69.20;;;;;;5016655;28;20069;-80
2021/03/12 02:44:33;;;;;;;16.77;2.50;;;10.10;69.70;;;;;;5002267;28;20035;-79
2021/03/12 02:47:03;;;;;;;17.73;2.50;;;10.10;69.80;;;;;;5001002;28;20043;-79
2021/03/12 02:49:31;;;;;;;17.90;2.10;;;10.10;70.20;;;;;;5001794;28;20046;-79
2021/03/12 02:51:59;;;;;;;15.73;3.00;;;10.00;70.60;;;;;;5001621;28;20033;-79
2021/03/12 02:54:26;;;;;;;18.13;4.05;;;10.00;72.30;;;;;;5003049;28;20027;-80
2021/03/12 02:56:52;;;;;;;19.38;3.72;;;10.00;73.00;;;;;;5002688;28;20067;-80
2021/03/12 02:59:19;;;;;;;21.92;2.90;;;9.90;73.90;;;;;;5002481;28;20043;-78
2021/03/12 03:01:52;;;;;;;22.23;2.80;;;9.90;74.50;;;;;;5002852;28;20022;-78
2021/03/12 03:04:20;;;;;;;19.02;2.45;;;9.80;74.50;;;;;;5002349;28;20034;-79
2021/03/12 03:06:47;;;;;;;18.45;3.08;;;9.80;75.10;;;;;;5018714;28;20026;-79
2021/03/12 03:09:15;;;;;;;20.02;2.30;;;9.70;75.60;;;;;;5001859;28;20130;-79
2021/03/12 03:11:42;;;;;;;16.35;2.72;;;9.60;74.90;;;;;;5002600;28;20023;-79
2021/03/12 03:14:08;;;;;;;15.23;3.05;;;9.50;75.80;;;;;;5002565;28;20026;-79
2021/03/12 03:16:37;;;;;;;17.67;3.42;;;9.50;75.60;;;;;;5002604;28;20066;-79
2021/03/12 03:19:06;;;;;;;18.35;3.95;;;9.40;75.80;;;;;;5002561;28;20024;-77
2021/03/12 03:21:33;;;;;;;20.52;4.72;;;9.30;76.20;;;;;;5002315;28;20035;-79
2021/03/12 03:23:59;;;;;;;19.92;3.72;;;9.20;76.90;;;;;;5001984;28;20027;-79
2021/03/12 03:26:25;;;;;;;25.02;3.60;;;9.20;77.20;;;;;;5002351;28;20030;-79
2021/03/12 03:28:51;;;;;;;19.75;3.42;;;9.20;78.10;;;;;;5018165;28;20038;-79
2021/03/12 03:31:17;;;;;;;25.35;4.22;;;9.20;79.10;;;;;;5002376;28;20057;-78
2021/03/12 03:33:43;;;;;;;26.85;4.40;;;9.10;80.00;;;;;;5017720;28;20047;-79
2021/03/12 03:36:09;;;;;;;19.00;3.83;;;9.10;81.00;;;;;;4991449;28;20067;-79
2021/03/12 03:38:35;;;;;;;28.70;3.70;;;9.10;81.80;;;;;;4978865;28;20506;-79
2021/03/12 03:41:07;;;;;;;29.80;4.38;;;9.10;82.80;;;;;;4980571;28;20134;-79
2021/03/12 03:43:38;;;;;;;29.08;4.65;;;9.10;84.30;;;;;;4978417;28;20530;-79
2021/03/12 03:46:06;;;;;;;27.85;4.03;;;9.10;85.20;;;;;;4980221;28;20105;-79
2021/03/12 03:48:37;;;;;;;24.35;4.38;;;9.10;85.40;;;;;;5001490;28;20041;-79
2021/03/12 03:51:07;;;;;;;19.70;3.22;;;9.10;85.50;;;;;;4988101;28;20046;-79
2021/03/12 03:53:35;;;;;;;25.02;3.30;;;9.10;85.50;;;;;;4990142;28;20511;-80
2021/03/12 03:56:03;;;;;;;36.35;4.38;;;9.10;85.70;;;;;;4994057;28;20043;-79
2021/03/12 03:58:30;;;;;;;24.10;3.63;;;9.10;85.90;;;;;;4998874;28;20039;-80
2021/03/12 04:00:58;;;;;;;30.23;4.18;;;9.10;86.20;;;;;;4982660;28;20045;-79
2021/03/12 04:03:25;;;;;;;22.40;3.33;;;9.20;86.30;;;;;;4977710;28;20173;-79
2021/03/12 04:05:54;;;;;;;31.15;3.45;;;9.20;86.40;;;;;;4976609;28;20038;-79
2021/03/12 04:08:21;;;;;;;31.33;3.80;;;9.30;86.90;;;;;;4977928;28;20078;-79
2021/03/12 04:10:49;;;;;;;22.98;4.60;;;9.30;87.10;;;;;;4993050;28;20031;-79
2021/03/12 04:13:15;;;;;;;25.80;3.55;;;9.30;85.60;;;;;;4992731;28;20488;-79
2021/03/12 04:15:41;;;;;;;25.88;3.00;;;9.40;84.20;;;;;;4977754;28;20034;-79
2021/03/12 04:18:07;;;;;;;31.85;4.53;;;9.30;80.80;;;;;;4976348;28;20411;-79
2021/03/12 04:20:33;;;;;;;44.00;5.32;;;9.30;79.50;;;;;;4977454;28;20034;-79
2021/03/12 04:23:00;;;;;;;28.02;4.93;;;9.30;79.30;;;;;;4976372;28;20142;-79
2021/03/12 04:25:26;;;;;;;28.45;6.13;;;9.30;78.90;;;;;;4976342;28;20054;-79
2021/03/12 04:27:52;;;;;;;32.90;6.47;;;9.20;79.30;;;;;;4977066;28;20101;-79
2021/03/12 04:30:18;;;;;;;32.03;5.63;;;9.20;79.60;;;;;;4976985;28;20400;-78
2021/03/12 04:32:46;;;;;;;18.77;4.53;;;9.30;79.60;;;;;;4976715;28;20046;-78
2021/03/12 04:35:13;;;;;;;24.02;4.50;;;9.30;79.70;;;;;;4976843;28;20081;-78
2021/03/12 04:37:39;;;;;;;24.38;4.28;;;9.30;79.70;;;;;;4977274;28;20049;-78
2021/03/12 04:40:07;;;;;;;29.98;3.83;;;9.20;79.90;;;;;;4977145;28;20042;-78
2021/03/12 04:42:35;;;;;;;28.98;4.22;;;9.20;80.40;;;;;;4976805;28;20045;-78
2021/03/12 04:45:04;;;;;;;33.58;4.65;;;9.20;80.70;;;;;;4975498;28;20500;-79
2021/03/12 04:47:30;;;;;;;26.08;3.72;;;9.10;81.20;;;;;;4976631;28;20078;-79
2021/03/12 04:49:56;;;;;;;23.25;4.43;;;9.20;81.60;;;;;;4977190;28;20133;-79
2021/03/12 04:52:22;;;;;;;21.92;2.83;;;9.20;81.90;;;;;;4975369;28;20057;-79
2021/03/12 04:54:48;;;;;;;18.10;3.83;;;9.40;80.80;;;;;;4976649;28;20444;-78
2021/03/12 04:57:18;;;;;;;18.65;1.90;;;9.50;77.50;;;;;;4976590;28;20522;-78
2021/03/12 04:59:44;;;;;;;18.67;2.25;;;9.50;77.40;;;;;;4976700;28;20038;-79
2021/03/12 05:02:12;;;;;;;17.27;2.60;;;9.60;74.30;;;;;;4976805;28;20046;-78
2021/03/12 05:04:40;;;;;;;19.80;2.50;;;9.60;73.00;;;;;;4976514;28;20043;-79
2021/03/12 05:07:07;;;;;;;17.23;2.30;;;9.60;73.30;;;;;;4977019;28;20492;-78
2021/03/12 05:09:33;;;;;;;20.80;2.75;;;9.50;73.80;;;;;;4976245;28;20051;-78
2021/03/12 05:11:58;;;;;;;15.23;1.90;;;9.50;74.10;;;;;;4976339;28;20567;-78
2021/03/12 05:14:24;;;;;;;22.20;2.63;;;9.40;75.80;;;;;;4991296;28;20039;-78
2021/03/12 05:16:50;;;;;;;19.13;1.83;;;9.40;76.10;;;;;;4976114;28;20047;-78
2021/03/12 05:19:16;;;;;;;17.95;2.60;;;9.40;76.10;;;;;;4990530;28;20133;-79
2021/03/12 05:21:42;;;;;;;27.40;1.90;;;9.30;75.40;;;;;;4976254;28;20407;-79
2021/03/12 05:24:08;;;;;;;17.63;1.77;;;9.30;76.80;;;;;;4976375;28;20480;-79
2021/03/12 05:26:34;;;;;;;18.33;1.83;;;9.30;76.40;;;;;;4991421;28;20117;-79
2021/03/12 05:29:00;;;;;;;18.55;2.35;;;9.30;77.00;;;;;;4976411;28;20195;-79
2021/03/12 05:31:30;;;;;;;17.83;2.78;;;9.30;77.80;;;;;;4976845;28;20034;-79
2021/03/12 05:33:56;;;;;;;17.75;2.35;;;9.30;78.40;;;;;;4976055;28;20030;-79
2021/03/12 05:36:23;;;;;;;12.88;1.58;;;9.30;78.50;;;;;;4975978;28;20042;-79
2021/03/12 05:38:48;;;;;;;24.35;2.38;;;9.30;79.30;;;;;;4976296;28;20043;-79
2021/03/12 05:41:17;;;;;;;23.40;2.75;;;9.20;79.40;;;;;;4976131;28;20051;-79
2021/03/12 05:43:43;;;;;;;16.13;2.92;;;9.20;78.90;;;;;;4976061;28;20046;-79
2021/03/12 05:46:10;;;;;;;20.00;2.13;;;9.20;78.70;;;;;;4975980;28;20102;-79
2021/03/12 05:48:36;;;;;;;25.70;2.42;;;9.30;78.60;;;;;;4975894;28;20034;-79
2021/03/12 05:51:02;;;;;;;23.45;2.15;;;9.30;78.70;;;;;;4991018;28;20163;-79
2021/03/12 05:53:29;;;;;;;16.65;2.50;;;9.30;78.90;;;;;;4976136;28;20085;-79
2021/03/12 05:55:56;;;;;;;24.15;3.08;;;9.30;79.10;;;;;;4976079;28;20046;-78
2021/03/12 05:58:22;;;;;;;26.38;3.00;;;9.30;78.60;;;;;;4976324;28;20046;-78
2021/03/12 06:00:49;;;;;;;27.35;3.17;;;9.30;78.30;;;;;;4976239;28;20058;-78
2021/03/12 06:03:15;;;;;;;19.73;2.70;;;9.30;78.30;;;;;;4975600;28;20618;-79
2021/03/12 06:05:45;;;;;;;21.58;3.20;;;9.40;78.10;;;;;;4976280;28;20051;-79
2021/03/12 06:08:11;;;;;;;25.63;2.92;;;9.40;78.50;;;;;;4975612;28;20045;-79
2021/03/12 06:10:37;;;;;;;25.52;4.03;;;9.40;78.90;;;;;;4978426;28;20375;-79
2021/03/12 06:13:04;;;;;;;23.10;3.65;;;9.30;79.30;;;;;;4979953;28;20187;-79
2021/03/12 06:15:43;;;;;;;32.05;3.50;;;9.30;80.40;;;;;;4979812;28;20042;-80
2021/03/12 06:18:22;;;;;;;25.08;3.17;;;9.40;81.10;;;;;;4979487;28;20133;-80
2021/03/12 06:20:49;;;;;;;32.92;4.80;;;9.30;82.10;;;;;;4979301;28;20068;-79
2021/03/12 06:23:34;;;;;;;24.67;3.78;;;9.40;82.90;;;;;;4979298;28;20046;-79
2021/03/12 06:26:07;;;;;;;26.02;3.35;;;9.50;85.20;;;;;;4979335;28;20511;-80
2021/03/12 06:28:33;;;;;;;26.45;2.58;;;9.50;85.50;;;;;;4979265;28;20070;-79
2021/03/12 06:30:59;;;;;;;23.58;2.60;;;9.50;83.20;;;;;;4978065;28;20566;-79
2021/03/12 06:33:30;;;;;;;16.27;2.45;;;9.30;84.60;;;;;;4979941;28;20035;-79
2021/03/12 06:35:58;;;;;;;20.75;2.30;;;9.10;83.70;;;;;;4979663;28;20116;-77
2021/03/12 06:38:24;;;;;;;25.90;2.40;;;9.00;84.00;;;;;;4979442;28;20073;-80
2021/03/12 06:40:51;;;;;;;22.63;3.10;;;9.00;85.10;;;;;;4977928;28;20088;-80
2021/03/12 06:43:24;;;;;;;21.98;4.25;;;8.90;83.90;;;;;;4979322;28;20571;-79
2021/03/12 06:45:50;;;;;;;20.80;3.15;;;8.90;83.70;;;;;;4979307;28;20122;-79
2021/03/12 06:48:23;;;;;;;22.23;2.45;;;8.90;82.50;;;;;;4979193;28;20039;-80
2021/03/12 06:50:59;;;;;;;21.63;3.65;;;9.00;81.50;;;;;;4979502;28;20118;-79
2021/03/12 06:53:26;;;;;;;21.77;2.15;;;9.00;82.30;;;;;;4979201;28;20046;-80
2021/03/12 06:55:53;;;;;;;24.17;2.70;;;8.90;82.60;;;;;;4978814;28;20068;-80
2021/03/12 06:58:20;;;;;;;16.85;2.40;;;8.80;83.90;;;;;;4979962;28;20181;-79
2021/03/12 07:00:47;;;;;;;22.92;2.92;;;8.80;85.30;;;;;;4977699;28;20124;-79
2021/03/12 07:03:23;;;;;;;15.30;2.30;;;8.70;85.20;;;;;;4978328;28;20035;-80
2021/03/12 07:05:59;;;;;;;17.75;3.30;;;8.60;84.90;;;;;;4979423;28;20038;-77
2021/03/12 07:08:29;;;;;;;27.15;6.25;;;8.60;85.70;;;;;;4978528;28;20492;-78
2021/03/12 07:10:55;;;;;;;37.38;9.25;;;8.70;85.30;;;;;;4979202;28;20116;-77
2021/03/12 07:13:22;;;;;;;24.98;8.45;;;8.70;85.70;;;;;;4977890;28;20571;-77
2021/03/12 07:15:51;;;;;;;27.02;7.53;;;8.70;86.00;;;;;;4979095;28;20057;-77
2021/03/12 07:18:18;;;;;;;22.23;4.35;;;8.80;85.70;;;;;;4978192;28;20035;-78
2021/03/12 07:20:44;;;;;;;28.75;4.70;;;8.80;85.20;;;;;;4977651;28;20086;-78
2021/03/12 07:23:11;;;;;;;30.38;5.05;;;8.80;85.60;;;;;;4977991;28;20129;-81
2021/03/12 07:25:42;;;;;;;28.45;5.03;;;8.80;86.20;;;;;;4977978;28;20046;-79
2021/03/12 07:28:08;;;;;;;24.23;5.03;;;8.90;86.10;;;;;;4978306;28;20129;-79
2021/03/12 07:30:38;;;;;;;18.15;3.08;;;9.00;86.10;;;;;;4993004;28;20078;-79
2021/03/12 07:33:05;;;;;;;27.80;4.18;;;9.10;86.20;;;;;;4977702;28;20038;-78
2021/03/12 07:35:33;;;;;;;27.17;3.80;;;9.20;86.50;;;;;;4976882;28;20070;-78
2021/03/12 07:38:00;;;;;;;22.52;3.33;;;9.30;86.30;;;;;;4977871;28;20066;-77
2021/03/12 07:40:28;;;;;;;29.52;3.65;;;9.50;85.80;;;;;;4977781;28;20094;-80
2021/03/12 07:42:55;;;;;;;30.30;3.22;;;9.60;85.10;;;;;;4984753;28;20043;-78
2021/03/12 07:45:21;;;;;;;24.95;2.97;;;9.80;84.50;;;;;;4973768;28;20054;-78
2021/03/12 07:47:48;;;;;;;31.45;3.55;;;9.90;84.50;;;;;;4976261;28;20198;-78
2021/03/12 07:50:25;;;;;;;28.27;3.38;;;10.00;84.50;;;;;;4977213;28;20042;-78
2021/03/12 07:52:52;;;;;;;25.35;3.65;;;10.10;84.30;;;;;;4979868;28;20042;-78
2021/03/12 07:55:37;;;;;;;33.05;3.97;;;10.20;84.10;;;;;;4976452;28;20058;-78
2021/03/12 07:58:08;;;;;;;22.70;2.97;;;10.40;83.20;;;;;;4977097;28;20054;-82
2021/03/12 08:01:04;;;;;;;27.77;3.42;;;10.40;82.70;;;;;;4977020;28;20039;-77
2021/03/12 08:03:32;;;;;;;21.73;3.05;;;10.50;82.10;;;;;;4976767;28;20049;-77
2021/03/12 08:05:58;;;;;;;29.85;4.88;;;10.60;81.70;;;;;;4977042;28;20064;-78
2021/03/12 08:08:32;;;;;;;22.83;4.78;;;10.70;81.20;;;;;;4975391;28;20031;-78
2021/03/12 08:11:24;;;;;;;33.75;5.13;;;10.80;79.50;;;;;;4976778;28;20035;-78
2021/03/12 08:13:51;;;;;;;27.92;3.38;;;10.80;78.90;;;;;;4976860;28;20034;-77
2021/03/12 08:16:18;;;;;;;27.08;4.07;;;10.90;77.10;;;;;;4991945;28;20073;-77
2021/03/12 08:18:45;;;;;;;18.70;3.22;;;10.90;77.60;;;;;;4976265;28;20065;-77
2021/03/12 08:21:31;;;;;;;22.40;3.67;;;11.10;77.30;;;;;;4976081;28;20053;-77
2021/03/12 08:23:57;;;;;;;25.95;3.67;;;11.20;77.50;;;;;;4991382;28;20122;-78
2021/03/12 08:26:54;;;;;;;27.48;4.28;;;11.20;78.40;;;;;;4991919;28;20042;-77
2021/03/12 08:29:38;;;;;;;18.50;2.67;;;11.30;79.00;;;;;;4976979;28;20050;-77
2021/03/12 08:32:44;;;;;;;24.88;3.40;;;11.30;80.20;;;;;;4976155;28;20046;-79
2021/03/12 08:35:32;;;;;;;20.83;2.97;;;11.20;79.60;;;;;;4974475;28;20419;-78
2021/03/12 08:38:10;;;;;;;23.48;2.53;;;11.20;79.10;;;;;;4991168;28;20305;-80
2021/03/12 08:40:37;;;;;;;25.10;2.80;;;11.20;79.50;;;;;;4976632;28;20042;-78
2021/03/12 08:43:08;;;;;;;26.58;4.22;;;11.10;80.00;;;;;;4974974;28;20086;-79
2021/03/12 08:45:45;;;;;;;26.08;4.15;;;11.00;80.70;;;;;;4974519;28;20034;-77
2021/03/12 08:48:19;;;;;;;29.83;3.97;;;10.90;79.50;;;;;;4974570;28;20046;-75
2021/03/12 08:50:56;;;;;;;25.52;4.22;;;10.80;79.10;;;;;;4976556;28;20038;-76
2021/03/12 08:53:23;;;;;;;22.27;3.50;;;10.80;79.10;;;;;;4991028;28;20074;-77
2021/03/12 08:55:52;;;;;;;23.10;3.75;;;11.00;79.30;;;;;;4975796;28;20050;-76
2021/03/12 08:58:23;;;;;;;25.48;3.33;;;11.20;79.30;;;;;;4976146;28;20043;-76
2021/03/12 09:00:55;;;;;;;31.20;3.45;;;11.40;78.90;;;;;;4976244;28;20035;-76
2021/03/12 09:03:24;;;;;;;20.75;2.80;;;11.60;77.70;;;;;;4976074;28;20053;-76
2021/03/12 09:05:52;;;;;;;30.40;3.58;;;11.80;77.60;;;;;;4976162;28;20044;-76
2021/03/12 09:08:25;;;;;;;27.08;3.13;;;11.90;76.80;;;;;;4975619;28;20034;-76
2021/03/12 09:10:52;;;;;;;20.85;2.83;;;12.10;77.60;;;;;;4976222;28;20122;-76
2021/03/12 09:13:23;;;;;;;23.27;2.92;;;12.20;76.80;;;;;;4991283;28;20046;-75
2021/03/12 09:15:50;;;;;;;22.35;2.92;;;12.40;76.90;;;;;;4976122;28;20027;-75
2021/03/12 09:18:21;;;;;;;21.98;2.80;;;12.30;77.10;;;;;;4975751;28;20112;-75
2021/03/12 09:20:53;;;;;;;23.17;2.70;;;12.20;76.80;;;;;;4975335;28;20503;-76
2021/03/12 09:23:20;;;;;;;21.38;2.85;;;11.90;78.70;;;;;;4975786;28;20045;-75
2021/03/12 09:25:56;;;;;;;24.20;3.97;;;11.60;80.40;;;;;;4991004;28;20043;-75
2021/03/12 09:28:27;;;;;;;33.95;4.03;;;11.50;82.40;;;;;;4975188;28;20054;-76
2021/03/12 09:30:53;;;;;;;18.50;2.78;;;11.70;82.50;;;;;;4974610;28;20042;-75
2021/03/12 09:33:37;;;;;;;18.55;2.55;;;11.80;80.30;;;;;;4974113;28;20035;-75
2021/03/12 09:36:28;;;;;;;20.88;2.78;;;12.00;78.60;;;;;;4975761;28;20096;-75
2021/03/12 09:39:02;;;;;;;24.67;2.90;;;12.00;77.60;;;;;;4967406;28;20070;-75
2021/03/12 09:41:28;;;;;;;20.27;3.20;;;12.20;76.30;;;;;;4975564;28;20047;-75
2021/03/12 09:44:08;;;;;;;24.67;2.75;;;12.20;76.40;;;;;;4974766;28;20555;-75
2021/03/12 09:46:40;;;;;;;19.88;3.05;;;12.30;76.10;;;;;;4975502;28;20480;-75
2021/03/12 09:49:18;;;;;;;23.55;3.55;;;12.30;75.90;;;;;;4975123;28;20050;-77
2021/03/12 09:51:46;;;;;;;24.27;4.47;;;12.40;76.30;;;;;;4975342;28;20022;-77
2021/03/12 09:54:15;;;;;;;23.88;3.88;;;12.50;76.40;;;;;;4989903;28;20070;-77
2021/03/12 09:56:46;;;;;;;24.10;4.38;;;12.50;75.40;;;;;;4974893;28;20039;-78
2021/03/12 09:59:12;;;;;;;23.52;3.75;;;12.60;76.00;;;;;;4989843;28;20492;-79
2021/03/12 10:01:40;;;;;;;27.13;3.53;;;12.70;75.80;;;;;;4975147;28;20123;-77
2021/03/12 10:04:34;;;;;;;29.42;4.63;;;12.70;75.10;;;;;;4974850;28;20065;-78
2021/03/12 10:07:02;;;;;;;24.75;3.28;;;12.80;76.10;;;;;;4975099;28;20101;-76
2021/03/12 10:09:29;;;;;;;27.58;3.72;;;12.80;75.50;;;;;;4975145;28;20042;-77
2021/03/12 10:11:57;;;;;;;23.63;3.08;;;12.90;75.90;;;;;;4975407;28;20512;-75
2021/03/12 10:14:30;;;;;;;23.35;2.85;;;12.90;75.60;;;;;;4990341;28;20043;-76
2021/03/12 10:17:06;;;;;;;18.05;2.70;;;13.10;74.90;;;;;;4975284;28;20190;-78
2021/03/12 10:19:42;;;;;;;22.27;2.83;;;13.20;74.30;;;;;;4974972;28;20035;-76
2021/03/12 10:22:34;;;;;;;20.17;2.75;;;13.30;72.80;;;;;;4969960;28;20061;-75
2021/03/12 10:25:21;;;;;;;19.60;2.95;;;13.40;73.20;;;;;;4966818;28;20038;-78
2021/03/12 10:27:52;;;;;;;23.52;3.20;;;13.40;73.40;;;;;;4974387;28;20122;-77
2021/03/12 10:30:24;;;;;;;23.73;3.28;;;13.50;71.70;;;;;;4974577;28;20049;-76
2021/03/12 10:32:57;;;;;;;39.65;4.95;;;13.50;71.90;;;;;;4973918;28;20042;-77
2021/03/12 10:35:24;;;;;;;29.38;5.07;;;13.50;71.30;;;;;;4973298;28;20085;-75
2021/03/12 10:37:52;;;;;;;20.92;3.80;;;13.60;70.40;;;;;;4974572;28;20046;-76
2021/03/12 10:40:20;;;;;;;24.70;5.18;;;13.60;70.80;;;;;;4974339;28;20504;-78
2021/03/12 10:42:46;;;;;;;23.67;3.50;;;13.70;71.40;;;;;;4974586;28;20054;-78
2021/03/12 10:45:29;;;;;;;20.95;3.38;;;13.70;70.80;;;;;;4974666;28;20100;-75
2021/03/12 10:48:04;;;;;;;27.05;4.13;;;13.90;71.70;;;;;;4972458;28;20087;-78
2021/03/12 10:50:34;;;;;;;28.85;3.72;;;14.00;70.80;;;;;;4974208;28;20065;-78
2021/03/12 10:53:10;;;;;;;21.42;3.28;;;14.00;70.90;;;;;;4988513;28;20046;-79
2021/03/12 10:55:44;;;;;;;21.23;3.45;;;14.10;70.30;;;;;;4974751;28;20039;-76
2021/03/12 10:58:29;;;;;;;25.30;3.83;;;14.20;69.80;;;;;;4993044;28;20108;-78
2021/03/12 11:01:19;;;;;;;26.00;3.67;;;14.50;68.90;;;;;;4977977;28;20055;-79
2021/03/12 11:03:46;;;;;;;27.58;4.28;;;14.70;67.10;;;;;;4977862;28;20039;-76
2021/03/12 11:06:14;;;;;;;26.10;3.70;;;14.50;65.80;;;;;;4977993;28;20523;-76
2021/03/12 11:08:40;;;;;;;22.77;3.88;;;14.40;66.60;;;;;;4978712;28;20045;-77
2021/03/12 11:11:09;;;;;;;20.50;3.40;;;14.30;68.50;;;;;;4978315;28;20169;-78
2021/03/12 11:13:36;;;;;;;25.40;3.63;;;14.20;65.90;;;;;;4977910;28;20117;-79
2021/03/12 11:16:03;;;;;;;27.20;3.70;;;14.30;66.60;;;;;;4976110;28;20039;-83
2021/03/12 11:18:30;;;;;;;24.27;3.75;;;14.30;66.30;;;;;;4977178;28;20531;-79
2021/03/12 11:21:01;;;;;;;18.00;2.70;;;14.40;66.60;;;;;;4977037;28;20102;-78
2021/03/12 11:23:27;;;;;;;22.33;3.10;;;14.40;67.60;;;;;;4992125;28;20043;-78
2021/03/12 11:25:57;;;;;;;19.65;3.17;;;14.30;68.50;;;;;;4976130;28;20354;-78
2021/03/12 11:28:25;;;;;;;26.00;2.78;;;14.30;68.10;;;;;;4975678;28;20050;-78
2021/03/12 11:30:52;;;;;;;22.92;3.47;;;14.30;67.70;;;;;;4977584;28;20066;-79
2021/03/12 11:33:18;;;;;;;20.25;3.47;;;14.40;68.20;;;;;;4977791;28;20034;-83
2021/03/12 11:35:44;;;;;;;19.60;2.45;;;14.20;68.00;;;;;;4978207;28;20090;-78
2021/03/12 11:38:10;;;;;;;20.02;2.65;;;14.10;69.20;;;;;;4978166;28;20110;-80
2021/03/12 11:40:38;;;;;;;22.75;3.83;;;14.10;69.00;;;;;;4977451;28;20042;-79
2021/03/12 11:43:05;;;;;;;23.27;3.20;;;14.20;69.60;;;;;;4976785;28;20047;-79
2021/03/12 11:45:32;;;;;;;23.38;3.67;;;14.20;68.60;;;;;;4992115;28;20162;-79
2021/03/12 11:47:58;;;;;;;24.45;3.72;;;14.20;69.30;;;;;;4991722;28;20065;-79
2021/03/12 11:50:27;;;;;;;21.88;3.30;;;14.20;70.00;;;;;;4975902;28;20050;-79
2021/03/12 11:52:53;;;;;;;26.13;3.55;;;14.30;71.00;;;;;;4977256;28;20046;-80
2021/03/12 11:55:19;;;;;;;26.10;3.85;;;14.40;70.00;;;;;;4977161;28;20093;-79
2021/03/12 11:57:45;;;;;;;26.15;3.55;;;14.50;69.40;;;;;;4977210;28;20066;-79
2021/03/12 12:00:13;;;;;;;22.60;3.75;;;14.40;66.80;;;;;;4975729;28;20070;-79
2021/03/12 12:02:39;;;;;;;30.60;4.30;;;14.40;67.20;;;;;;4976898;28;20026;-79
2021/03/12 12:05:08;;;;;;;23.02;3.22;;;14.60;66.50;;;;;;4976950;28;20074;-79
2021/03/12 12:07:34;;;;;;;20.38;3.65;;;14.90;64.60;;;;;;4974401;28;20030;-77
2021/03/12 12:10:00;;;;;;;29.40;4.10;;;14.90;64.40;;;;;;4992635;28;20570;-79
2021/03/12 12:12:27;;;;;;;16.08;2.65;;;14.90;63.50;;;;;;4977112;28;20038;-79
2021/03/12 12:14:53;;;;;;;24.92;3.42;;;14.80;63.40;;;;;;4976901;28;20121;-78
2021/03/12 12:17:19;;;;;;;24.33;3.28;;;14.80;64.50;;;;;;4976741;28;20034;-79
2021/03/12 12:19:46;;;;;;;20.27;2.80;;;14.80;64.10;;;;;;4975806;28;20073;-81
2021/03/12 12:22:13;;;;;;;29.23;4.65;;;14.70;65.30;;;;;;4975137;28;20416;-79
2021/03/12 12:24:40;;;;;;;23.83;2.83;;;14.40;66.00;;;;;;4991209;28;20046;-83
2021/03/12 12:27:08;;;;;;;22.83;3.47;;;14.10;65.00;;;;;;4975619;28;20117;-81
2021/03/12 12:29:34;;;;;;;19.70;2.10;;;14.10;64.60;;;;;;4975351;28;20073;-81
2021/03/12 12:32:00;;;;;;;17.88;2.20;;;14.10;65.80;;;;;;4976348;28;20503;-78
2021/03/12 12:34:26;;;;;;;14.75;1.70;;;14.10;64.60;;;;;;4975761;28;20575;-78
2021/03/12 12:36:53;;;;;;;15.27;1.30;;;14.20;64.10;;;;;;4976223;28;20049;-78
2021/03/12 12:39:20;;;;;;;12.65;2.42;;;14.30;63.90;;;;;;4976219;28;20542;-77
2021/03/12 12:41:46;;;;;;;8.38;1.60;;;14.10;65.10;;;;;;4976185;28;20054;-77
2021/03/12 12:44:14;;;;;;;11.85;2.00;;;14.10;65.70;;;;;;4976047;28;20058;-78
2021/03/12 12:46:41;;;;;;;20.60;3.70;;;14.10;65.30;;;;;;4975550;28;20081;-77
2021/03/12 12:49:07;;;;;;;13.85;1.92;;;14.10;66.20;;;;;;4975929;28;20038;-77
2021/03/12 12:51:34;;;;;;;20.25;2.78;;;14.20;66.50;;;;;;4990938;28;20143;-78
2021/03/12 12:54:01;;;;;;;21.88;2.60;;;14.20;66.40;;;;;;4975654;28;20066;-77